Time;durP1;ratioP1;P1;durP2;ratioP2;P2;SDS_P1;SDS_P2;PMS_P1;PMS_P2;Temp;Humidity;BMP_temperature;BMP_pressure;BME280_temperature;BME280_humidity;BME280_pressure;Samples;Min_cycle;Max_cycle;Signal;HPM_P1;HPM_P2
2022/05/26 00:02:28;;;;;;;4.40;3.10;;;;;;;8.52;94.85;96837.00;107364;1273;36634;-73
2022/05/26 00:04:58;;;;;;;2.80;2.10;;;;;;;8.55;94.90;96841.08;107427;1273;36962;-72
2022/05/26 00:07:31;;;;;;;2.80;2.20;;;;;;;8.65;94.79;96830.23;107432;1273;31695;-73
2022/05/26 00:10:02;;;;;;;2.40;2.10;;;;;;;8.84;94.81;96833.08;107405;1273;44271;-73
2022/05/26 00:12:33;;;;;;;3.50;2.60;;;;;;;8.92;94.37;96829.40;107305;1273;59790;-74
2022/05/26 00:15:06;;;;;;;3.50;2.60;;;;;;;8.99;94.13;96829.77;107315;1273;53583;-73
2022/05/26 00:17:37;;;;;;;3.30;2.50;;;;;;;9.02;93.97;96830.33;107419;1273;38574;-73
2022/05/26 00:20:10;;;;;;;3.90;2.70;;;;;;;9.04;94.03;96833.65;107348;1273;35853;-72
2022/05/26 00:22:41;;;;;;;5.50;3.80;;;;;;;9.05;94.19;96832.96;107385;1273;50075;-72
2022/05/26 00:25:13;;;;;;;5.60;4.20;;;;;;;9.08;94.18;96839.58;107358;1273;35969;-72
2022/05/26 00:27:43;;;;;;;5.60;4.40;;;;;;;9.06;94.09;96843.38;107362;1273;37114;-73
2022/05/26 00:30:15;;;;;;;5.50;4.20;;;;;;;8.99;94.09;96845.95;107268;1273;55596;-73
2022/05/26 00:32:46;;;;;;;5.80;4.50;;;;;;;8.98;94.33;96842.92;107394;1273;44708;-73
2022/05/26 00:35:19;;;;;;;7.80;5.60;;;;;;;8.98;94.63;96841.40;107368;1273;33868;-72
2022/05/26 00:37:50;;;;;;;5.30;4.10;;;;;;;8.93;94.77;96841.19;107383;1273;31119;-72
2022/05/26 00:40:21;;;;;;;6.20;4.40;;;;;;;8.90;94.80;96844.41;107344;1273;50569;-72
2022/05/26 00:42:53;;;;;;;5.70;4.20;;;;;;;8.88;94.80;96841.03;107390;1273;32116;-72
2022/05/26 00:45:24;;;;;;;6.30;4.10;;;;;;;8.89;94.91;96847.85;107343;1273;43663;-72
2022/05/26 00:47:58;;;;;;;6.00;3.90;;;;;;;8.88;94.82;96847.80;107291;1274;33333;-73
2022/05/26 00:50:32;;;;;;;4.90;3.60;;;;;;;8.91;94.91;96849.92;107384;1273;50889;-72
2022/05/26 00:53:08;;;;;;;4.60;3.60;;;;;;;8.94;94.84;96854.20;107370;1273;39046;-74
2022/05/26 00:55:44;;;;;;;5.80;4.50;;;;;;;8.94;94.61;96853.45;107374;1273;43879;-73
2022/05/26 00:58:20;;;;;;;6.70;5.40;;;;;;;8.90;94.63;96854.41;107361;1273;50927;-72
2022/05/26 01:00:51;;;;;;;6.90;5.00;;;;;;;8.88;94.87;96858.32;107334;1273;57728;-73
2022/05/26 01:03:29;;;;;;;5.90;5.00;;;;;;;8.83;94.83;96860.13;107337;1273;43751;-73
2022/05/26 01:06:05;;;;;;;5.70;4.20;;;;;;;8.74;94.73;96865.15;107444;1273;34150;-73
2022/05/26 01:08:43;;;;;;;4.30;3.50;;;;;;;8.69;95.26;96861.48;107416;1273;41947;-73
2022/05/26 01:11:14;;;;;;;4.30;3.50;;;;;;;8.82;95.80;96860.45;107252;1273;98927;-73
2022/05/26 01:13:48;;;;;;;3.80;3.00;;;;;;;8.91;95.80;96859.23;107359;1273;33852;-73
2022/05/26 01:16:29;;;;;;;4.00;2.90;;;;;;;8.91;95.32;96863.82;107251;1273;42721;-73
2022/05/26 01:19:16;;;;;;;4.90;3.30;;;;;;;8.94;95.14;96868.32;107463;1273;27714;-72
2022/05/26 01:21:55;;;;;;;4.70;3.10;;;;;;;9.01;95.03;96873.46;107406;1273;30778;-73
2022/05/26 01:25:08;;;;;;;3.30;2.90;;;;;;;9.05;94.75;96870.52;107299;1273;46572;-72
2022/05/26 01:27:41;;;;;;;2.90;2.60;;;;;;;9.06;94.32;96869.71;107106;1274;63476;-73
2022/05/26 01:30:40;;;;;;;3.80;3.00;;;;;;;9.11;94.28;96870.20;107352;1273;47921;-72
2022/05/26 01:33:30;;;;;;;4.80;2.80;;;;;;;9.15;93.99;96870.00;107331;1273;69184;-72
2022/05/26 01:36:16;;;;;;;4.00;2.90;;;;;;;9.19;93.60;96868.90;107440;1273;39891;-72
2022/05/26 01:38:58;;;;;;;3.10;2.20;;;;;;;9.16;93.28;96863.61;107219;1274;55146;-72
2022/05/26 01:41:52;;;;;;;3.60;2.80;;;;;;;9.13;93.18;96862.00;107381;1273;50127;-72
2022/05/26 01:44:34;;;;;;;3.50;2.50;;;;;;;9.12;92.98;96855.87;107261;1274;56959;-72
2022/05/26 01:47:11;;;;;;;3.30;2.90;;;;;;;9.13;92.94;96854.48;107261;1273;69581;-73
2022/05/26 01:49:47;;;;;;;3.50;2.60;;;;;;;9.16;92.69;96863.30;107414;1273;33144;-72
2022/05/26 01:52:27;;;;;;;3.20;2.60;;;;;;;9.17;92.43;96869.16;107341;1273;78815;-72
2022/05/26 01:55:06;;;;;;;4.20;2.70;;;;;;;9.13;92.11;96875.75;107428;1273;33411;-73
2022/05/26 01:57:43;;;;;;;4.50;2.20;;;;;;;9.12;92.01;96881.20;107381;1273;35531;-73
2022/05/26 02:00:19;;;;;;;3.00;2.40;;;;;;;9.12;91.99;96886.02;107308;1273;47655;-73
2022/05/26 02:02:56;;;;;;;2.60;1.80;;;;;;;9.12;91.77;96890.83;107297;1273;44333;-72
2022/05/26 02:05:32;;;;;;;3.40;2.20;;;;;;;9.11;91.70;96887.55;107288;1273;78225;-72
2022/05/26 02:08:09;;;;;;;3.50;2.10;;;;;;;9.08;91.70;96883.73;107429;1273;32054;-73
2022/05/26 02:10:44;;;;;;;4.30;2.50;;;;;;;9.02;91.47;96885.85;107345;1271;59664;-73
2022/05/26 02:13:18;;;;;;;3.00;2.10;;;;;;;9.00;91.46;96887.57;107361;1273;31476;-73
2022/05/26 02:15:52;;;;;;;2.30;2.10;;;;;;;9.00;91.40;96897.51;107387;1273;51443;-72
2022/05/26 02:18:28;;;;;;;2.50;1.90;;;;;;;9.02;91.28;96901.81;107364;1273;52218;-73
2022/05/26 02:21:04;;;;;;;3.10;2.30;;;;;;;9.08;91.14;96901.36;107428;1273;36528;-73
2022/05/26 02:23:41;;;;;;;2.10;1.90;;;;;;;9.10;90.94;96905.79;107343;1273;38249;-73
2022/05/26 02:26:14;;;;;;;2.00;1.80;;;;;;;9.09;90.72;96902.79;107328;1273;52155;-73
2022/05/26 02:31:35;;;;;;;3.40;1.90;;;;;;;9.14;90.42;96901.48;107355;1273;40886;-74
2022/05/26 02:34:07;;;;;;;3.10;1.50;;;;;;;9.12;90.25;96901.62;107370;1273;34356;-73
2022/05/26 02:36:42;;;;;;;3.10;1.80;;;;;;;9.12;90.09;96895.85;107286;1273;53052;-73
2022/05/26 02:39:13;;;;;;;3.30;2.30;;;;;;;9.16;89.83;96899.27;107331;1273;43194;-72
2022/05/26 02:41:45;;;;;;;4.40;1.80;;;;;;;9.16;89.75;96900.59;107224;1273;87882;-72
2022/05/26 02:44:16;;;;;;;4.30;2.10;;;;;;;9.15;89.60;96897.63;107360;1273;40371;-73
2022/05/26 02:46:59;;;;;;;3.90;2.00;;;;;;;9.16;89.70;96900.42;107404;1273;33123;-72
2022/05/26 02:49:43;;;;;;;2.00;1.60;;;;;;;9.18;89.51;96897.78;107352;1273;49318;-72
2022/05/26 02:52:23;;;;;;;3.60;1.80;;;;;;;9.25;89.45;96900.06;107369;1273;47689;-73
2022/05/26 02:55:02;;;;;;;;;;;;;;;9.25;89.50;96898.42;107381;1273;41236;-72
2022/05/26 02:57:40;;;;;;;4.30;1.80;;;;;;;9.27;89.42;96903.61;107244;1274;36746;-74
2022/05/26 03:00:18;;;;;;;1.80;1.60;;;;;;;9.31;89.54;96902.31;107416;1273;33488;-73
2022/05/26 03:02:58;;;;;;;2.90;1.90;;;;;;;9.33;89.39;96905.11;107280;1273;65386;-73
2022/05/26 03:05:34;;;;;;;2.80;1.60;;;;;;;9.36;89.39;96907.33;107389;1273;33529;-73
2022/05/26 03:08:11;;;;;;;2.20;1.70;;;;;;;9.37;89.42;96913.36;107308;1273;59777;-73
2022/05/26 03:10:47;;;;;;;4.00;2.00;;;;;;;9.39;89.29;96909.50;107310;1273;47882;-73
2022/05/26 03:13:18;;;;;;;2.20;1.60;;;;;;;9.42;89.30;96906.75;107336;1273;52471;-73
2022/05/26 03:15:52;;;;;;;3.10;1.60;;;;;;;9.44;89.05;96909.46;107282;1273;73582;-72
2022/05/26 03:18:23;;;;;;;1.70;1.60;;;;;;;9.46;88.98;96910.52;107390;1273;38411;-73
2022/05/26 03:20:54;;;;;;;2.30;1.80;;;;;;;9.48;88.99;96909.67;107312;1273;95532;-73
2022/05/26 03:23:25;;;;;;;2.90;1.50;;;;;;;9.55;88.81;96911.79;107371;1273;59348;-72
2022/05/26 03:26:00;;;;;;;4.60;2.00;;;;;;;9.62;88.74;96914.45;107385;1273;35403;-73
2022/05/26 03:28:32;;;;;;;3.80;1.60;;;;;;;9.67;88.73;96911.48;107406;1273;40158;-72
2022/05/26 03:31:05;;;;;;;2.10;1.50;;;;;;;9.69;88.55;96912.17;107420;1273;53525;-73
2022/05/26 03:42:02;;;;;;;1.90;1.60;;;;;;;9.72;88.03;96907.47;107454;1273;32200;-73
2022/05/26 03:44:36;;;;;;;2.10;1.30;;;;;;;9.74;87.94;96906.25;107285;1273;69857;-73
2022/05/26 03:47:07;;;;;;;2.00;1.40;;;;;;;9.80;87.65;96905.34;107328;1273;57502;-73
2022/05/26 03:49:38;;;;;;;2.20;1.80;;;;;;;9.86;87.68;96915.30;107390;1273;34077;-73
2022/05/26 03:52:10;;;;;;;1.80;1.50;;;;;;;9.93;87.25;96913.02;107372;1273;39935;-72
2022/05/26 03:54:41;;;;;;;2.00;1.40;;;;;;;9.97;86.71;96909.09;107377;1273;74222;-73
2022/05/26 03:57:14;;;;;;;2.30;1.40;;;;;;;10.00;86.41;96910.05;107329;1273;60156;-73
2022/05/26 03:59:45;;;;;;;2.40;1.60;;;;;;;10.01;85.81;96905.81;107277;1273;73576;-73
2022/05/26 04:02:16;;;;;;;1.90;1.30;;;;;;;10.06;85.61;96909.45;107332;1273;61241;-73
2022/05/26 04:04:47;;;;;;;2.80;1.40;;;;;;;10.08;85.41;96911.67;107327;1273;58836;-73
2022/05/26 04:07:19;;;;;;;3.80;1.50;;;;;;;10.12;85.13;96912.45;107406;1273;32215;-73
2022/05/26 04:09:52;;;;;;;1.80;1.60;;;;;;;10.12;84.92;96916.54;107393;1273;39713;-73
2022/05/26 04:12:23;;;;;;;1.90;1.50;;;;;;;10.17;85.18;96924.34;107371;1273;33464;-73
2022/05/26 04:14:54;;;;;;;2.10;1.40;;;;;;;10.22;85.04;96917.46;107379;1273;44425;-73
2022/05/26 04:17:25;;;;;;;3.00;1.30;;;;;;;10.23;84.59;96919.27;107376;1273;40476;-73
2022/05/26 04:19:56;;;;;;;1.90;1.40;;;;;;;10.28;84.88;96924.61;107381;1273;45682;-73
2022/05/26 04:22:27;;;;;;;1.80;1.40;;;;;;;10.33;84.95;96925.71;107214;1274;52577;-73
2022/05/26 04:25:00;;;;;;;2.20;1.70;;;;;;;10.37;84.78;96920.86;107347;1273;37996;-74
2022/05/26 04:27:33;;;;;;;3.00;1.80;;;;;;;10.36;84.52;96919.27;107441;1273;38229;-73
2022/05/26 04:30:07;;;;;;;2.60;1.90;;;;;;;10.37;84.62;96925.85;107419;1273;35412;-74
2022/05/26 04:32:40;;;;;;;1.60;1.40;;;;;;;10.38;84.55;96924.36;107306;1273;62496;-73
2022/05/26 04:35:12;;;;;;;2.30;2.10;;;;;;;10.45;84.49;96918.80;107388;1273;56848;-73
2022/05/26 04:37:43;;;;;;;2.70;2.00;;;;;;;10.40;84.21;96916.52;107222;1274;54273;-73
2022/05/26 04:40:16;;;;;;;1.80;1.40;;;;;;;10.44;84.38;96916.63;107236;1274;51573;-73
2022/05/26 04:42:47;;;;;;;2.80;1.50;;;;;;;10.46;84.17;96922.29;107304;1274;30313;-73
2022/05/26 04:45:18;;;;;;;2.70;1.80;;;;;;;10.43;84.12;96920.66;107310;1273;53365;-73
2022/05/26 04:47:48;;;;;;;1.60;1.10;;;;;;;10.46;84.25;96918.31;107383;1273;31884;-73
2022/05/26 04:50:22;;;;;;;2.00;1.50;;;;;;;10.50;84.00;96922.80;107362;1273;37200;-73
2022/05/26 04:52:54;;;;;;;2.60;1.80;;;;;;;10.58;84.26;96922.20;107395;1273;31629;-73
2022/05/26 04:55:25;;;;;;;3.00;1.40;;;;;;;10.79;84.49;96923.08;107334;1273;47707;-73
2022/05/26 04:57:55;;;;;;;5.20;2.00;;;;;;;11.01;84.02;96926.27;107254;1274;56940;-73
2022/05/26 05:00:27;;;;;;;1.70;1.40;;;;;;;11.35;83.61;96924.34;107377;1273;32099;-73
2022/05/26 05:02:58;;;;;;;2.50;1.60;;;;;;;11.83;83.73;96924.80;107413;1273;44982;-73
2022/05/26 05:05:29;;;;;;;2.10;1.60;;;;;;;13.10;83.85;96925.22;107387;1273;36447;-73
2022/05/26 05:08:00;;;;;;;2.30;1.70;;;;;;;15.58;83.27;96920.70;107387;1273;62545;-74
2022/05/26 05:10:31;;;;;;;4.90;1.30;;;;;;;18.27;78.67;96919.91;107319;1274;35201;-73
2022/05/26 05:13:02;;;;;;;1.60;1.20;;;;;;;19.73;68.71;96914.64;107315;1274;34920;-74
2022/05/26 05:15:44;;;;;;;2.40;1.60;;;;;;;20.12;65.23;96915.87;107409;1273;64532;-73
2022/05/26 05:18:15;;;;;;;2.40;1.70;;;;;;;21.63;65.00;96911.29;107402;1273;35890;-74
2022/05/26 05:20:46;;;;;;;1.30;1.00;;;;;;;22.29;59.64;96916.06;107355;1273;49407;-74
2022/05/26 05:23:17;;;;;;;2.10;1.10;;;;;;;23.11;60.17;96914.43;107400;1274;34925;-74
2022/05/26 05:25:52;;;;;;;2.00;1.40;;;;;;;24.15;55.85;96913.39;107097;1274;120299;-74
2022/05/26 05:28:29;;;;;;;1.40;1.20;;;;;;;24.27;52.13;96908.83;107170;1274;76957;-74
2022/05/26 05:31:03;;;;;;;1.90;0.90;;;;;;;24.45;53.33;96902.33;107294;1274;35075;-74
2022/05/26 05:33:40;;;;;;;2.50;1.00;;;;;;;25.94;52.48;96898.23;107234;1273;73967;-75
2022/05/26 05:36:16;;;;;;;1.10;1.00;;;;;;;26.57;49.01;96901.31;107368;1273;58478;-74
2022/05/26 05:38:48;;;;;;;1.10;0.90;;;;;;;26.89;46.71;96902.19;107176;1273;113321;-74
2022/05/26 05:41:20;;;;;;;1.40;1.10;;;;;;;26.14;44.16;96897.46;107178;1274;56604;-75
2022/05/26 05:43:51;;;;;;;1.70;1.00;;;;;;;26.28;44.61;96901.33;107364;1273;35374;-74
2022/05/26 05:46:22;;;;;;;1.10;0.90;;;;;;;26.22;43.35;96895.13;107356;1273;66336;-75
2022/05/26 05:48:53;;;;;;;2.40;0.90;;;;;;;26.52;44.80;96895.81;107363;1273;35139;-74
2022/05/26 05:51:24;;;;;;;0.90;0.80;;;;;;;27.47;43.95;96896.23;107331;1273;93054;-75
2022/05/26 05:53:55;;;;;;;1.70;0.90;;;;;;;27.99;42.04;96887.66;107383;1273;35031;-75
2022/05/26 05:56:29;;;;;;;1.00;0.90;;;;;;;27.57;40.75;96892.54;107236;1273;115500;-75
2022/05/26 05:59:00;;;;;;;1.40;0.90;;;;;;;27.67;41.03;96892.04;107380;1273;65950;-75
2022/05/26 06:01:31;;;;;;;1.30;1.20;;;;;;;28.37;41.23;96893.91;107381;1273;52698;-75
2022/05/26 06:04:02;;;;;;;2.30;0.90;;;;;;;29.86;40.68;96887.64;107422;1273;52355;-75
2022/05/26 06:06:39;;;;;;;2.10;1.00;;;;;;;30.21;37.02;96884.98;107412;1273;29099;-75
2022/05/26 06:09:13;;;;;;;1.90;1.30;;;;;;;30.60;38.41;96886.15;107357;1273;63744;-75
2022/05/26 06:11:45;;;;;;;1.30;1.10;;;;;;;30.54;36.57;96883.52;107403;1273;32033;-75
2022/05/26 06:14:17;;;;;;;2.60;1.10;;;;;;;31.38;37.67;96884.44;107285;1273;110924;-75
2022/05/26 06:16:50;;;;;;;2.20;1.00;;;;;;;31.60;35.13;96878.73;107407;1273;34543;-76
2022/05/26 06:19:22;;;;;;;1.40;0.90;;;;;;;31.05;35.51;96880.00;107301;1273;105179;-76
2022/05/26 06:21:53;;;;;;;1.20;1.10;;;;;;;31.41;33.63;96877.52;107240;1275;49232;-75
2022/05/26 06:24:25;;;;;;;1.30;1.00;;;;;;;30.17;33.10;96879.06;107242;1273;109301;-75
2022/05/26 06:26:56;;;;;;;1.20;1.00;;;;;;;29.37;33.32;96877.28;107178;1273;117436;-76
2022/05/26 06:37:55;;;;;;;1.20;1.10;;;;;;;26.86;36.71;96879.95;107380;1274;40676;-75
2022/05/26 06:40:28;;;;;;;2.50;1.40;;;;;;;27.55;36.72;96879.77;107289;1273;72635;-75
2022/05/26 06:42:59;;;;;;;2.10;1.40;;;;;;;27.70;35.67;96879.45;107378;1275;32843;-76
2022/05/26 06:45:30;;;;;;;1.30;1.20;;;;;;;27.21;35.44;96880.67;107476;1274;37110;-75
2022/05/26 06:48:01;;;;;;;4.40;1.30;;;;;;;27.44;36.96;96879.39;107203;1274;115347;-76
2022/05/26 06:50:33;;;;;;;3.50;1.60;;;;;;;28.47;35.34;96879.98;107280;1274;66199;-76
2022/05/26 06:53:04;;;;;;;2.00;1.20;;;;;;;29.48;34.52;96882.70;107123;1274;66661;-77
2022/05/26 06:55:35;;;;;;;1.50;1.40;;;;;;;30.20;33.75;96880.46;107366;1274;31995;-76
2022/05/26 06:58:06;;;;;;;1.70;1.40;;;;;;;31.06;33.51;96886.48;107237;1273;85453;-76
2022/05/26 07:00:37;;;;;;;2.60;1.30;;;;;;;32.08;33.51;96886.53;107219;1274;96044;-77
2022/05/26 07:03:08;;;;;;;1.40;1.10;;;;;;;32.79;32.67;96878.21;107185;1274;105650;-76
2022/05/26 07:05:40;;;;;;;3.10;1.60;;;;;;;33.10;31.48;96878.96;106841;1274;148018;-76
2022/05/26 07:08:11;;;;;;;2.50;1.10;;;;;;;32.74;30.58;96875.40;107182;1274;69897;-76
2022/05/26 07:10:42;;;;;;;1.00;0.90;;;;;;;32.84;31.01;96882.29;107170;1275;94366;-77
2022/05/26 07:13:14;;;;;;;3.00;1.30;;;;;;;33.14;29.63;96875.58;107345;1274;54201;-77
2022/05/26 07:15:45;;;;;;;3.50;1.40;;;;;;;33.07;30.03;96877.05;107165;1274;141847;-77
2022/05/26 07:18:17;;;;;;;4.40;1.20;;;;;;;33.33;30.00;96879.94;107384;1274;33282;-76
2022/05/26 07:20:50;;;;;;;3.10;1.80;;;;;;;33.57;29.70;96883.25;107022;1274;151804;-76
2022/05/26 07:23:21;;;;;;;2.10;1.00;;;;;;;33.81;30.30;96884.23;107164;1275;134982;-77
2022/05/26 07:25:52;;;;;;;0.70;0.70;;;;;;;33.78;28.15;96885.02;107326;1274;97386;-76
2022/05/26 07:28:24;;;;;;;2.50;2.10;;;;;;;32.64;27.40;96886.10;107164;1274;53338;-76
2022/05/26 07:30:55;;;;;;;3.50;1.30;;;;;;;31.33;29.01;96888.03;107374;1274;33388;-76
2022/05/26 07:33:28;;;;;;;1.40;1.10;;;;;;;31.42;30.15;96891.77;107264;1274;71399;-76
2022/05/26 07:35:59;;;;;;;1.00;0.80;;;;;;;32.16;29.18;96893.39;107419;1274;85702;-76
2022/05/26 07:41:23;;;;;;;1.60;0.90;;;;;;;30.87;29.84;96900.05;107155;1274;185555;-77
2022/05/26 07:43:58;;;;;;;2.10;1.40;;;;;;;31.33;29.36;96904.09;107332;1274;39274;-76
2022/05/26 07:46:32;;;;;;;2.60;1.70;;;;;;;31.28;29.57;96908.67;107262;1274;111022;-76
2022/05/26 07:49:05;;;;;;;2.00;1.90;;;;;;;31.11;29.06;96911.02;107431;1274;37051;-77
2022/05/26 07:51:36;;;;;;;2.60;2.40;;;;;;;30.69;29.45;96914.09;105732;1274;1565453;-76
2022/05/26 07:54:07;;;;;;;2.40;2.10;;;;;;;29.78;31.02;96918.70;107240;1274;116727;-77
2022/05/26 07:56:39;;;;;;;3.00;1.80;;;;;;;30.21;31.57;96917.11;107369;1274;34508;-76
2022/05/26 07:59:11;;;;;;;3.10;1.30;;;;;;;31.47;31.49;96923.33;107191;1274;61964;-77
2022/05/26 08:01:42;;;;;;;1.40;1.10;;;;;;;32.61;30.65;96920.36;107352;1274;66746;-77
2022/05/26 08:04:13;;;;;;;1.60;1.20;;;;;;;33.72;30.15;96919.64;107156;1274;79815;-76
2022/05/26 08:06:46;;;;;;;2.70;0.90;;;;;;;33.94;28.54;96909.72;107127;1274;88073;-76
2022/05/26 08:09:20;;;;;;;2.70;0.90;;;;;;;31.11;28.88;96911.16;107217;1275;36488;-76
2022/05/26 08:11:51;;;;;;;2.10;0.90;;;;;;;30.38;30.59;96909.82;105616;1274;2077096;-76
2022/05/26 08:14:22;;;;;;;4.20;1.20;;;;;;;28.75;31.34;96916.76;107290;1274;128827;-76
2022/05/26 08:16:53;;;;;;;1.50;1.00;;;;;;;29.06;32.78;96913.67;107296;1274;65843;-76
2022/05/26 08:19:24;;;;;;;1.30;1.00;;;;;;;30.15;31.44;96910.74;107278;1273;134363;-76
2022/05/26 08:21:56;;;;;;;1.50;0.90;;;;;;;30.38;30.62;96906.59;107272;1274;58316;-76
2022/05/26 08:24:30;;;;;;;3.80;1.10;;;;;;;27.43;31.57;96906.45;107259;1274;134009;-76
2022/05/26 08:27:01;;;;;;;2.20;1.00;;;;;;;25.22;35.14;96907.70;107433;1274;35325;-76
2022/05/26 08:29:34;;;;;;;1.20;0.90;;;;;;;23.39;38.19;96905.27;107276;1274;140556;-75
2022/05/26 08:32:06;;;;;;;1.80;1.20;;;;;;;22.19;39.89;96910.13;107126;1274;105044;-75
2022/05/26 08:34:37;;;;;;;1.40;0.90;;;;;;;20.98;41.52;96911.72;107321;1274;81725;-75
2022/05/26 08:37:15;;;;;;;1.30;0.80;;;;;;;21.07;42.47;96912.54;107279;1274;92047;-76
2022/05/26 08:39:46;;;;;;;2.40;1.00;;;;;;;23.27;38.75;96902.19;107290;1274;35927;-75
2022/05/26 08:42:22;;;;;;;2.20;0.70;;;;;;;24.63;38.12;96905.09;107195;1274;87209;-75
2022/05/26 08:44:55;;;;;;;3.00;0.80;;;;;;;26.15;34.59;96902.21;107325;1273;118124;-75
2022/05/26 08:47:33;;;;;;;1.30;0.80;;;;;;;25.74;33.37;96904.81;107320;1273;74685;-75
2022/05/26 08:50:09;;;;;;;2.10;1.60;;;;;;;24.53;35.08;96916.27;107377;1273;76756;-76
2022/05/26 08:52:45;;;;;;;1.10;0.80;;;;;;;24.98;33.28;96910.80;107412;1273;46240;-75
2022/05/26 08:55:19;;;;;;;1.70;0.60;;;;;;;25.05;32.94;96902.23;107236;1273;105287;-75
2022/05/26 08:57:56;;;;;;;3.90;1.10;;;;;;;23.19;34.53;96912.11;107331;1274;34741;-75
2022/05/26 09:00:28;;;;;;;2.70;0.80;;;;;;;21.50;38.29;96913.77;107219;1273;120122;-74
2022/05/26 09:03:02;;;;;;;1.60;0.70;;;;;;;20.60;39.37;96920.83;107315;1273;94267;-74
2022/05/26 09:05:40;;;;;;;2.60;0.80;;;;;;;20.11;40.18;96926.84;107382;1273;86315;-75
2022/05/26 09:14:06;;;;;;;2.40;0.80;;;;;;;18.80;42.77;96932.90;107381;1274;61133;-74
2022/05/26 09:16:44;;;;;;;2.20;0.90;;;;;;;18.87;43.69;96935.27;107324;1273;67918;-75
2022/05/26 09:19:17;;;;;;;1.40;0.80;;;;;;;19.15;43.83;96928.90;107362;1273;57636;-74
2022/05/26 09:21:52;;;;;;;2.60;1.00;;;;;;;19.58;43.85;96923.33;107120;1273;140742;-74
2022/05/26 09:24:32;;;;;;;1.80;0.80;;;;;;;20.02;43.86;96918.98;107376;1273;36865;-74
2022/05/26 09:27:08;;;;;;;3.80;0.70;;;;;;;20.26;43.05;96917.22;107269;1273;81534;-75
2022/05/26 09:29:40;;;;;;;4.00;0.80;;;;;;;20.20;42.12;96913.98;107280;1273;64428;-74
2022/05/26 09:32:18;;;;;;;1.40;0.80;;;;;;;19.90;41.94;96909.90;107343;1273;105792;-74
2022/05/26 09:35:05;;;;;;;1.80;0.70;;;;;;;19.61;42.64;96914.98;107185;1274;80828;-74
2022/05/26 09:37:42;;;;;;;2.00;0.70;;;;;;;19.33;42.58;96914.84;107377;1273;44828;-74
2022/05/26 09:40:21;;;;;;;1.00;0.60;;;;;;;19.03;43.03;96922.00;107324;1273;60775;-74
2022/05/26 09:42:58;;;;;;;2.80;1.00;;;;;;;18.72;43.53;96925.38;107156;1273;94475;-74
2022/05/26 09:45:34;;;;;;;3.40;0.80;;;;;;;18.50;43.26;96931.88;107434;1273;36645;-74
2022/05/26 09:48:17;;;;;;;2.90;0.80;;;;;;;18.44;43.74;96933.41;107219;1274;84690;-74
2022/05/26 09:50:52;;;;;;;2.70;1.00;;;;;;;18.47;43.68;96934.16;107266;1274;35994;-74
2022/05/26 09:53:35;;;;;;;2.90;1.10;;;;;;;18.46;43.80;96938.48;107256;1273;73528;-74
2022/05/26 09:56:07;;;;;;;0.90;0.80;;;;;;;18.42;43.79;96932.77;107299;1273;66958;-75
2022/05/26 09:58:40;;;;;;;2.00;0.60;;;;;;;18.32;43.52;96936.92;107377;1273;35947;-74
2022/05/26 10:01:36;;;;;;;1.60;0.80;;;;;;;18.28;43.42;96942.41;107268;1273;101174;-74
2022/05/26 10:04:20;;;;;;;2.90;1.10;;;;;;;18.23;43.54;96940.60;107245;1274;76048;-74
2022/05/26 10:06:59;;;;;;;0.90;0.80;;;;;;;18.18;43.95;96935.69;107234;1273;75665;-73
2022/05/26 10:09:43;;;;;;;3.10;0.90;;;;;;;18.04;44.17;96943.76;107425;1273;29759;-73
2022/05/26 10:12:24;;;;;;;1.30;0.80;;;;;;;18.00;45.04;96939.68;107225;1273;96162;-73
2022/05/26 10:15:10;;;;;;;0.80;0.60;;;;;;;18.05;45.44;96934.30;107306;1273;61562;-73
2022/05/26 10:17:59;;;;;;;2.40;0.90;;;;;;;18.25;45.15;96934.91;107394;1273;28839;-73
2022/05/26 10:20:41;;;;;;;3.70;0.90;;;;;;;18.71;45.32;96934.24;107307;1273;110771;-74
2022/05/26 10:23:27;;;;;;;2.00;0.90;;;;;;;19.02;44.85;96927.55;107367;1273;36201;-74
2022/05/26 10:26:07;;;;;;;2.70;1.00;;;;;;;18.99;44.63;96926.30;107346;1273;53495;-74
2022/05/26 10:29:22;;;;;;;1.50;0.80;;;;;;;18.91;44.73;96925.55;107201;1274;54805;-74
2022/05/26 10:32:08;;;;;;;1.70;0.60;;;;;;;18.81;44.53;96924.30;107340;1273;39617;-74
2022/05/26 10:35:02;;;;;;;1.50;0.90;;;;;;;18.54;44.35;96929.79;107321;1273;49876;-74
2022/05/26 10:37:48;;;;;;;2.50;0.60;;;;;;;18.38;45.04;96924.42;107307;1273;75926;-74
2022/05/26 10:40:31;;;;;;;2.70;0.80;;;;;;;18.44;45.12;96926.43;107371;1273;32707;-74
2022/05/26 10:43:09;;;;;;;2.40;0.90;;;;;;;18.70;45.24;96923.01;107486;1273;50905;-74
2022/05/26 10:45:42;;;;;;;1.90;0.90;;;;;;;18.88;43.67;96915.19;107174;1273;74631;-74
2022/05/26 10:48:22;;;;;;;3.00;0.70;;;;;;;19.00;43.51;96915.60;107377;1273;35930;-73
2022/05/26 10:51:00;;;;;;;3.70;0.60;;;;;;;19.21;43.47;96915.85;107219;1273;169356;-74
2022/05/26 10:53:37;;;;;;;2.60;0.60;;;;;;;19.47;42.96;96907.71;107440;1273;33075;-73
2022/05/26 10:56:18;;;;;;;2.20;0.80;;;;;;;19.66;42.28;96903.98;107309;1273;61928;-74
2022/05/26 10:58:52;;;;;;;1.30;0.70;;;;;;;19.60;42.32;96909.52;107226;1273;99955;-74
2022/05/26 11:01:34;;;;;;;1.60;0.70;;;;;;;19.68;42.67;96911.96;107344;1273;44659;-74
2022/05/26 11:04:16;;;;;;;1.00;0.80;;;;;;;19.82;43.16;96913.20;107113;1273;133268;-74
2022/05/26 11:06:50;;;;;;;2.00;0.90;;;;;;;19.81;42.63;96908.49;107329;1273;34097;-74
2022/05/26 11:09:29;;;;;;;1.70;0.80;;;;;;;19.71;42.82;96910.27;107163;1273;112469;-74
2022/05/26 11:12:07;;;;;;;2.00;0.80;;;;;;;19.82;42.32;96907.44;107262;1273;81765;-74
2022/05/26 11:17:45;;;;;;;1.50;0.80;;;;;;;19.66;41.66;96910.78;107319;1273;96532;-74
2022/05/26 11:20:21;;;;;;;1.00;0.60;;;;;;;19.60;41.31;96907.28;107261;1273;91249;-74
2022/05/26 11:22:54;;;;;;;2.00;0.60;;;;;;;19.43;41.36;96905.64;107323;1273;54916;-74
2022/05/26 11:26:00;;;;;;;2.50;0.80;;;;;;;19.43;41.83;96904.80;107223;1273;88547;-74
2022/05/26 11:38:57;;;;;;;2.10;0.90;;;;;;;19.79;42.17;96907.27;106290;1286;34959;-73
2022/05/26 11:41:31;;;;;;;1.10;0.80;;;;;;;19.67;42.53;96906.50;106269;1286;125009;-73
2022/05/26 11:44:06;;;;;;;4.10;1.10;;;;;;;19.58;43.39;96911.27;106364;1286;30169;-73
2022/05/26 11:46:56;;;;;;;2.10;0.90;;;;;;;19.48;43.67;96913.59;106434;1287;216155;-74
2022/05/26 11:50:09;;;;;;;1.40;0.80;;;;;;;19.25;43.02;96902.65;106619;1283;82846;-73
2022/05/26 11:53:40;;;;;;;;;;;;;;;;;;;;;
2022/05/26 11:56:48;;;;;;;2.50;0.70;;;;;;;19.11;42.77;96910.54;106600;1284;40588;-73
2022/05/26 11:59:46;;;;;;;1.80;0.90;;;;;;;18.98;42.52;96903.98;107139;1275;89979;-73
2022/05/26 12:02:32;;;;;;;7.30;1.10;;;;;;;18.96;43.45;96907.15;107080;1277;94074;-74
2022/05/26 12:05:34;;;;;;;2.30;0.80;;;;;;;18.99;44.03;96907.63;107284;1277;47994;-74
2022/05/26 12:08:23;;;;;;;2.60;1.10;;;;;;;18.97;44.05;96902.71;107093;1274;132902;-74
2022/05/26 12:10:59;;;;;;;3.10;1.00;;;;;;;19.12;44.17;96897.45;107109;1278;84976;-74
2022/05/26 12:13:37;;;;;;;2.70;1.00;;;;;;;19.22;43.94;96893.84;107352;1277;29861;-74
2022/05/26 12:16:26;;;;;;;3.30;1.60;;;;;;;19.26;43.69;96890.17;107121;1271;206017;-74
2022/05/26 12:19:00;;;;;;;1.50;1.00;;;;;;;19.41;44.24;96888.88;107371;1271;47922;-74
2022/05/26 12:21:42;;;;;;;2.90;1.20;;;;;;;19.54;43.30;96885.23;107359;1271;109313;-73
2022/05/26 12:25:01;;;;;;;2.80;0.70;;;;;;;19.60;42.24;96886.73;107235;1271;109298;-74
2022/05/26 12:28:00;;;;;;;2.10;0.80;;;;;;;19.64;41.25;96885.36;107317;1274;41010;-73
2022/05/26 12:31:07;;;;;;;2.10;0.60;;;;;;;19.77;40.44;96883.91;107270;1274;37120;-74
2022/05/26 12:34:18;;;;;;;3.30;0.70;;;;;;;19.75;40.09;96884.23;107304;1274;104253;-74
2022/05/26 12:37:06;;;;;;;2.50;0.40;;;;;;;19.93;39.55;96879.92;107534;1268;32766;-73
2022/05/26 12:40:05;;;;;;;1.60;0.70;;;;;;;19.87;38.32;96883.09;107619;1268;70094;-74
2022/05/26 12:42:49;;;;;;;1.60;0.20;;;;;;;19.82;38.12;96882.63;107378;1268;140669;-74
2022/05/26 12:45:42;;;;;;;1.50;0.60;;;;;;;19.98;38.65;96877.89;107516;1268;74287;-74
2022/05/26 12:48:43;;;;;;;21.70;0.80;;;;;;;19.89;38.35;96880.57;107190;1271;181888;-73
2022/05/26 12:51:16;;;;;;;1.30;0.40;;;;;;;19.72;38.41;96890.35;107449;1268;147640;-74
2022/05/26 12:53:56;;;;;;;3.50;0.70;;;;;;;19.59;38.66;96881.57;107550;1268;32794;-74